sensor_id;sensor_type;location;lat;lon;timestamp;pressure;altitude;pressure_sealevel;temperature;humidity
43436;BME280;36399;51.444;-2.018;2023-08-01T00:01:31;99866.19;;;14.09;100.00
43436;BME280;36399;51.444;-2.018;2023-08-01T00:03:57;99860.06;;;14.06;100.00
43436;BME280;36399;51.444;-2.018;2023-08-01T00:06:23;99868.03;;;13.98;100.00
43436;BME280;36399;51.444;-2.018;2023-08-01T00:08:51;99861.09;;;13.91;100.00
43436;BME280;36399;51.444;-2.018;2023-08-01T00:11:17;99876.03;;;13.90;100.00
43436;BME280;36399;51.444;-2.018;2023-08-01T00:13:43;99878.75;;;13.84;100.00
43436;BME280;36399;51.444;-2.018;2023-08-01T00:16:09;99891.88;;;13.90;100.00
43436;BME280;36399;51.444;-2.018;2023-08-01T00:18:35;99895.38;;;13.93;100.00
43436;BME280;36399;51.444;-2.018;2023-08-01T00:21:02;99906.78;;;13.93;100.00
43436;BME280;36399;51.444;-2.018;2023-08-01T00:23:28;99910.31;;;13.94;100.00
43436;BME280;36399;51.444;-2.018;2023-08-01T00:25:54;99917.34;;;13.93;100.00
43436;BME280;36399;51.444;-2.018;2023-08-01T00:28:23;99919.19;;;13.86;100.00
43436;BME280;36399;51.444;-2.018;2023-08-01T00:30:49;99921.91;;;13.77;100.00
43436;BME280;36399;51.444;-2.018;2023-08-01T00:33:15;99924.63;;;13.68;100.00
43436;BME280;36399;51.444;-2.018;2023-08-01T00:35:41;99923.81;;;13.60;100.00
43436;BME280;36399;51.444;-2.018;2023-08-01T00:38:07;99938.78;;;13.56;100.00
43436;BME280;36399;51.444;-2.018;2023-08-01T00:40:33;99937.91;;;13.56;100.00
43436;BME280;36399;51.444;-2.018;2023-08-01T00:43:00;99946.69;;;13.58;100.00
43436;BME280;36399;51.444;-2.018;2023-08-01T00:45:26;99954.59;;;13.58;100.00
43436;BME280;36399;51.444;-2.018;2023-08-01T00:47:54;99961.53;;;13.70;100.00
43436;BME280;36399;51.444;-2.018;2023-08-01T00:50:20;99971.22;;;13.69;100.00
43436;BME280;36399;51.444;-2.018;2023-08-01T00:52:49;99968.56;;;13.71;100.00
43436;BME280;36399;51.444;-2.018;2023-08-01T00:55:16;99963.31;;;13.68;100.00
43436;BME280;36399;51.444;-2.018;2023-08-01T00:57:42;99966.84;;;13.65;100.00
43436;BME280;36399;51.444;-2.018;2023-08-01T01:00:09;99971.25;;;13.66;100.00
43436;BME280;36399;51.444;-2.018;2023-08-01T01:02:36;99968.59;;;13.68;100.00
43436;BME280;36399;51.444;-2.018;2023-08-01T01:05:02;99985.22;;;13.76;100.00
43436;BME280;36399;51.444;-2.018;2023-08-01T01:07:29;99987.00;;;13.75;100.00
43436;BME280;36399;51.444;-2.018;2023-08-01T01:09:55;99984.34;;;13.77;100.00
43436;BME280;36399;51.444;-2.018;2023-08-01T01:12:21;99990.50;;;13.74;100.00
43436;BME280;36399;51.444;-2.018;2023-08-01T01:14:47;99997.53;;;13.78;100.00
43436;BME280;36399;51.444;-2.018;2023-08-01T01:17:13;100001.09;;;13.71;100.00
43436;BME280;36399;51.444;-2.018;2023-08-01T01:19:39;100002.88;;;13.68;100.00
43436;BME280;36399;51.444;-2.018;2023-08-01T01:22:06;100008.16;;;13.66;100.00
43436;BME280;36399;51.444;-2.018;2023-08-01T01:24:33;100015.22;;;13.64;100.00
43436;BME280;36399;51.444;-2.018;2023-08-01T01:27:01;100009.03;;;13.68;100.00
43436;BME280;36399;51.444;-2.018;2023-08-01T01:29:30;100022.22;;;13.68;100.00
43436;BME280;36399;51.444;-2.018;2023-08-01T01:31:57;100016.03;;;13.72;100.00
43436;BME280;36399;51.444;-2.018;2023-08-01T01:34:23;100029.25;;;13.68;100.00
43436;BME280;36399;51.444;-2.018;2023-08-01T01:36:49;100020.41;;;13.73;100.00
43436;BME280;36399;51.444;-2.018;2023-08-01T01:39:15;100013.41;;;13.71;100.00
43436;BME280;36399;51.444;-2.018;2023-08-01T01:41:41;100020.47;;;13.67;100.00
43436;BME280;36399;51.444;-2.018;2023-08-01T01:44:07;100013.50;;;13.60;100.00
43436;BME280;36399;51.444;-2.018;2023-08-01T01:46:33;100015.25;;;13.61;100.00
43436;BME280;36399;51.444;-2.018;2023-08-01T01:48:59;100006.50;;;13.50;100.00
43436;BME280;36399;51.444;-2.018;2023-08-01T01:51:26;100002.09;;;13.55;100.00
43436;BME280;36399;51.444;-2.018;2023-08-01T01:53:52;100002.97;;;13.54;100.00
43436;BME280;36399;51.444;-2.018;2023-08-01T01:56:18;99988.91;;;13.52;100.00
43436;BME280;36399;51.444;-2.018;2023-08-01T01:58:44;99996.00;;;13.44;100.00
43436;BME280;36399;51.444;-2.018;2023-08-01T02:01:10;99995.13;;;13.39;100.00
43436;BME280;36399;51.444;-2.018;2023-08-01T02:03:36;99996.94;;;13.34;100.00
43436;BME280;36399;51.444;-2.018;2023-08-01T02:06:02;99989.03;;;13.34;100.00
43436;BME280;36399;51.444;-2.018;2023-08-01T02:08:31;99982.97;;;13.18;100.00
43436;BME280;36399;51.444;-2.018;2023-08-01T02:10:57;99982.09;;;13.11;100.00
43436;BME280;36399;51.444;-2.018;2023-08-01T02:13:28;99978.63;;;13.05;100.00
43436;BME280;36399;51.444;-2.018;2023-08-01T02:15:54;99982.13;;;13.05;100.00
43436;BME280;36399;51.444;-2.018;2023-08-01T02:18:20;99979.47;;;13.11;100.00
43436;BME280;36399;51.444;-2.018;2023-08-01T02:20:46;99985.63;;;13.07;100.00
43436;BME280;36399;51.444;-2.018;2023-08-01T02:23:12;99975.06;;;13.10;100.00
43436;BME280;36399;51.444;-2.018;2023-08-01T02:25:41;99975.09;;;13.07;100.00
43436;BME280;36399;51.444;-2.018;2023-08-01T02:28:08;99958.41;;;13.07;100.00
43436;BME280;36399;51.444;-2.018;2023-08-01T02:30:35;99961.06;;;13.04;100.00
43436;BME280;36399;51.444;-2.018;2023-08-01T02:33:01;99967.22;;;12.96;100.00
43436;BME280;36399;51.444;-2.018;2023-08-01T02:35:28;99955.81;;;12.90;100.00
43436;BME280;36399;51.444;-2.018;2023-08-01T02:37:55;99954.97;;;12.83;100.00
43436;BME280;36399;51.444;-2.018;2023-08-01T02:40:21;99954.16;;;12.69;100.00
43436;BME280;36399;51.444;-2.018;2023-08-01T02:42:46;99962.94;;;12.73;100.00
43436;BME280;36399;51.444;-2.018;2023-08-01T02:45:12;99953.31;;;12.67;100.00
43436;BME280;36399;51.444;-2.018;2023-08-01T02:47:38;99963.81;;;12.70;100.00
43436;BME280;36399;51.444;-2.018;2023-08-01T02:50:05;99960.34;;;12.60;100.00
43436;BME280;36399;51.444;-2.018;2023-08-01T02:52:31;99971.72;;;12.69;100.00
43436;BME280;36399;51.444;-2.018;2023-08-01T02:54:57;99961.19;;;12.69;100.00
43436;BME280;36399;51.444;-2.018;2023-08-01T02:57:24;99960.31;;;12.73;100.00
43436;BME280;36399;51.444;-2.018;2023-08-01T02:59:50;99959.47;;;12.64;100.00
43436;BME280;36399;51.444;-2.018;2023-08-01T03:02:16;99955.97;;;12.59;100.00
43436;BME280;36399;51.444;-2.018;2023-08-01T03:04:43;99952.44;;;12.60;100.00
43436;BME280;36399;51.444;-2.018;2023-08-01T03:07:08;99952.44;;;12.62;100.00
43436;BME280;36399;51.444;-2.018;2023-08-01T03:09:34;99953.38;;;12.50;100.00
43436;BME280;36399;51.444;-2.018;2023-08-01T03:12:00;99948.09;;;12.44;100.00
43436;BME280;36399;51.444;-2.018;2023-08-01T03:14:26;99943.72;;;12.39;100.00
43436;BME280;36399;51.444;-2.018;2023-08-01T03:16:52;99949.00;;;12.31;100.00
43436;BME280;36399;51.444;-2.018;2023-08-01T03:19:18;99949.00;;;12.34;100.00
43436;BME280;36399;51.444;-2.018;2023-08-01T03:21:44;99947.25;;;12.36;100.00
43436;BME280;36399;51.444;-2.018;2023-08-01T03:24:10;99950.75;;;12.50;100.00
43436;BME280;36399;51.444;-2.018;2023-08-01T03:26:36;99955.94;;;12.66;100.00
43436;BME280;36399;51.444;-2.018;2023-08-01T03:29:02;99957.63;;;12.80;100.00
43436;BME280;36399;51.444;-2.018;2023-08-01T03:31:29;99944.44;;;12.88;100.00
43436;BME280;36399;51.444;-2.018;2023-08-01T03:33:55;99952.28;;;13.03;100.00
43436;BME280;36399;51.444;-2.018;2023-08-01T03:36:21;99945.22;;;13.08;100.00
43436;BME280;36399;51.444;-2.018;2023-08-01T03:38:47;99931.16;;;13.09;100.00
43436;BME280;36399;51.444;-2.018;2023-08-01T03:41:13;99938.16;;;13.13;100.00
43436;BME280;36399;51.444;-2.018;2023-08-01T03:43:39;99928.47;;;13.15;100.00
43436;BME280;36399;51.444;-2.018;2023-08-01T03:46:06;99919.69;;;13.16;100.00
43436;BME280;36399;51.444;-2.018;2023-08-01T03:48:32;99916.19;;;13.19;100.00
43436;BME280;36399;51.444;-2.018;2023-08-01T03:50:58;99911.81;;;13.18;100.00
43436;BME280;36399;51.444;-2.018;2023-08-01T03:53:24;99906.50;;;13.24;100.00
43436;BME280;36399;51.444;-2.018;2023-08-01T03:55:50;99914.41;;;13.22;100.00
43436;BME280;36399;51.444;-2.018;2023-08-01T03:58:16;99898.63;;;13.19;100.00
43436;BME280;36399;51.444;-2.018;2023-08-01T04:00:42;99892.47;;;13.17;100.00
43436;BME280;36399;51.444;-2.018;2023-08-01T04:03:08;99893.34;;;13.13;100.00
43436;BME280;36399;51.444;-2.018;2023-08-01T04:05:34;99897.75;;;13.11;100.00
43436;BME280;36399;51.444;-2.018;2023-08-01T04:08:00;99884.56;;;13.13;100.00
43436;BME280;36399;51.444;-2.018;2023-08-01T04:10:26;99890.78;;;13.04;100.00
43436;BME280;36399;51.444;-2.018;2023-08-01T04:12:52;99891.66;;;13.05;100.00
43436;BME280;36399;51.444;-2.018;2023-08-01T04:15:18;99882.88;;;13.00;100.00
43436;BME280;36399;51.444;-2.018;2023-08-01T04:17:44;99891.66;;;13.03;100.00
43436;BME280;36399;51.444;-2.018;2023-08-01T04:20:10;99898.72;;;12.96;100.00
43436;BME280;36399;51.444;-2.018;2023-08-01T04:22:36;99887.31;;;12.93;100.00
43436;BME280;36399;51.444;-2.018;2023-08-01T04:25:02;99896.13;;;12.89;100.00
43436;BME280;36399;51.444;-2.018;2023-08-01T04:27:28;99895.25;;;12.85;100.00
43436;BME280;36399;51.444;-2.018;2023-08-01T04:29:57;99892.63;;;12.84;100.00
43436;BME280;36399;51.444;-2.018;2023-08-01T04:32:23;99892.69;;;12.78;100.00
43436;BME280;36399;51.444;-2.018;2023-08-01T04:34:49;99894.47;;;12.73;100.00
43436;BME280;36399;51.444;-2.018;2023-08-01T04:37:15;99897.97;;;12.75;100.00
43436;BME280;36399;51.444;-2.018;2023-08-01T04:39:41;99898.88;;;12.69;100.00
43436;BME280;36399;51.444;-2.018;2023-08-01T04:42:07;99895.34;;;12.73;100.00
43436;BME280;36399;51.444;-2.018;2023-08-01T04:44:33;99887.47;;;12.66;100.00
43436;BME280;36399;51.444;-2.018;2023-08-01T04:46:59;99893.59;;;12.68;100.00
43436;BME280;36399;51.444;-2.018;2023-08-01T04:49:25;99888.41;;;12.57;100.00
43436;BME280;36399;51.444;-2.018;2023-08-01T04:51:51;99891.88;;;12.60;100.00
43436;BME280;36399;51.444;-2.018;2023-08-01T04:54:17;99898.91;;;12.63;100.00
43436;BME280;36399;51.444;-2.018;2023-08-01T04:56:43;99896.25;;;12.64;100.00
43436;BME280;36399;51.444;-2.018;2023-08-01T04:59:09;99893.63;;;12.66;100.00
43436;BME280;36399;51.444;-2.018;2023-08-01T05:01:35;99891.00;;;12.63;100.00
43436;BME280;36399;51.444;-2.018;2023-08-01T05:04:01;99883.97;;;12.67;100.00
43436;BME280;36399;51.444;-2.018;2023-08-01T05:06:27;99890.16;;;12.58;100.00
43436;BME280;36399;51.444;-2.018;2023-08-01T05:08:54;99886.66;;;12.53;100.00
43436;BME280;36399;51.444;-2.018;2023-08-01T05:11:20;99894.56;;;12.42;100.00
43436;BME280;36399;51.444;-2.018;2023-08-01T05:13:46;99884.94;;;12.41;100.00
43436;BME280;36399;51.444;-2.018;2023-08-01T05:16:12;99894.56;;;12.42;100.00
43436;BME280;36399;51.444;-2.018;2023-08-01T05:18:38;99888.44;;;12.49;100.00
43436;BME280;36399;51.444;-2.018;2023-08-01T05:21:04;99892.78;;;12.56;100.00
43436;BME280;36399;51.444;-2.018;2023-08-01T05:23:30;99888.38;;;12.61;100.00
43436;BME280;36399;51.444;-2.018;2023-08-01T05:25:56;99888.38;;;12.58;100.00
43436;BME280;36399;51.444;-2.018;2023-08-01T05:28:22;99879.63;;;12.56;100.00
43436;BME280;36399;51.444;-2.018;2023-08-01T05:30:48;99886.66;;;12.54;100.00
43436;BME280;36399;51.444;-2.018;2023-08-01T05:33:14;99886.66;;;12.54;100.00
43436;BME280;36399;51.444;-2.018;2023-08-01T05:35:39;99878.69;;;12.67;100.00
43436;BME280;36399;51.444;-2.018;2023-08-01T05:38:05;99877.78;;;12.71;100.00
43436;BME280;36399;51.444;-2.018;2023-08-01T05:40:31;99869.84;;;12.77;100.00
43436;BME280;36399;51.444;-2.018;2023-08-01T05:42:58;99871.59;;;12.81;100.00
43436;BME280;36399;51.444;-2.018;2023-08-01T05:45:24;99871.59;;;12.78;100.00
43436;BME280;36399;51.444;-2.018;2023-08-01T05:47:50;99865.44;;;12.79;100.00
43436;BME280;36399;51.444;-2.018;2023-08-01T05:50:16;99864.59;;;12.77;100.00
43436;BME280;36399;51.444;-2.018;2023-08-01T05:52:42;99851.41;;;12.78;100.00
43436;BME280;36399;51.444;-2.018;2023-08-01T05:55:08;99852.28;;;12.79;100.00
43436;BME280;36399;51.444;-2.018;2023-08-01T05:57:34;99848.75;;;12.80;100.00
43436;BME280;36399;51.444;-2.018;2023-08-01T06:00:00;99850.47;;;12.87;100.00
43436;BME280;36399;51.444;-2.018;2023-08-01T06:02:26;99849.53;;;12.94;100.00
43436;BME280;36399;51.444;-2.018;2023-08-01T06:04:53;99852.16;;;13.03;100.00
43436;BME280;36399;51.444;-2.018;2023-08-01T06:07:18;99838.09;;;13.04;100.00
43436;BME280;36399;51.444;-2.018;2023-08-01T06:09:50;99831.00;;;13.12;100.00
43436;BME280;36399;51.444;-2.018;2023-08-01T06:12:19;99846.78;;;13.15;100.00
43436;BME280;36399;51.444;-2.018;2023-08-01T06:14:45;99843.19;;;13.29;100.00
43436;BME280;36399;51.444;-2.018;2023-08-01T06:17:11;99835.16;;;13.42;100.00
43436;BME280;36399;51.444;-2.018;2023-08-01T06:19:37;99828.97;;;13.45;100.00
43436;BME280;36399;51.444;-2.018;2023-08-01T06:22:03;99821.03;;;13.48;100.00
43436;BME280;36399;51.444;-2.018;2023-08-01T06:24:29;99823.66;;;13.54;100.00
43436;BME280;36399;51.444;-2.018;2023-08-01T06:26:56;99816.56;;;13.59;100.00
43436;BME280;36399;51.444;-2.018;2023-08-01T06:29:22;99818.19;;;13.72;100.00
43436;BME280;36399;51.444;-2.018;2023-08-01T06:31:50;99812.84;;;13.78;100.00
43436;BME280;36399;51.444;-2.018;2023-08-01T06:34:15;99807.47;;;13.87;100.00
43436;BME280;36399;51.444;-2.018;2023-08-01T06:36:41;99788.97;;;13.89;100.00
43436;BME280;36399;51.444;-2.018;2023-08-01T06:39:07;99773.91;;;13.99;100.00
43436;BME280;36399;51.444;-2.018;2023-08-01T06:41:33;99766.81;;;14.07;100.00
43436;BME280;36399;51.444;-2.018;2023-08-01T06:43:59;99757.91;;;14.14;100.00
43436;BME280;36399;51.444;-2.018;2023-08-01T06:46:25;99742.00;;;14.20;100.00
43436;BME280;36399;51.444;-2.018;2023-08-01T06:48:51;99739.13;;;14.35;100.00
43436;BME280;36399;51.444;-2.018;2023-08-01T06:51:17;99724.94;;;14.44;100.00
43436;BME280;36399;51.444;-2.018;2023-08-01T06:53:43;99731.81;;;14.56;100.00
43436;BME280;36399;51.444;-2.018;2023-08-01T06:56:09;99725.44;;;14.72;100.00
43436;BME280;36399;51.444;-2.018;2023-08-01T06:58:35;99707.75;;;14.75;100.00
43436;BME280;36399;51.444;-2.018;2023-08-01T07:01:01;99709.22;;;14.93;100.00
43436;BME280;36399;51.444;-2.018;2023-08-01T07:03:26;99695.16;;;14.91;100.00
43436;BME280;36399;51.444;-2.018;2023-08-01T07:05:52;99696.66;;;15.06;100.00
43436;BME280;36399;51.444;-2.018;2023-08-01T07:08:18;99688.63;;;15.12;100.00
43436;BME280;36399;51.444;-2.018;2023-08-01T07:10:45;99690.84;;;15.35;100.00
43436;BME280;36399;51.444;-2.018;2023-08-01T07:13:11;99674.56;;;15.56;100.00
43436;BME280;36399;51.444;-2.018;2023-08-01T07:15:37;99640.16;;;15.56;100.00
43436;BME280;36399;51.444;-2.018;2023-08-01T07:18:03;99627.06;;;15.50;100.00
43436;BME280;36399;51.444;-2.018;2023-08-01T07:20:29;99642.09;;;15.48;100.00
43436;BME280;36399;51.444;-2.018;2023-08-01T07:22:55;99653.25;;;15.65;100.00
43436;BME280;36399;51.444;-2.018;2023-08-01T07:25:21;99659.97;;;15.82;100.00
43436;BME280;36399;51.444;-2.018;2023-08-01T07:27:48;99638.59;;;15.91;100.00
43436;BME280;36399;51.444;-2.018;2023-08-01T07:30:13;99649.13;;;15.94;100.00
43436;BME280;36399;51.444;-2.018;2023-08-01T07:32:39;99625.03;;;15.66;100.00
43436;BME280;36399;51.444;-2.018;2023-08-01T07:35:06;99625.06;;;15.64;100.00
43436;BME280;36399;51.444;-2.018;2023-08-01T07:37:35;99628.47;;;15.69;100.00
43436;BME280;36399;51.444;-2.018;2023-08-01T07:40:07;99623.00;;;15.78;100.00
43436;BME280;36399;51.444;-2.018;2023-08-01T07:42:33;99621.00;;;15.88;100.00
43436;BME280;36399;51.444;-2.018;2023-08-01T07:44:59;99609.78;;;16.17;100.00
43436;BME280;36399;51.444;-2.018;2023-08-01T07:47:25;99598.56;;;16.41;100.00
43436;BME280;36399;51.444;-2.018;2023-08-01T07:49:52;99581.16;;;16.68;100.00
43436;BME280;36399;51.444;-2.018;2023-08-01T07:52:18;99561.91;;;16.94;100.00
43436;BME280;36399;51.444;-2.018;2023-08-01T07:54:44;99539.75;;;17.28;100.00
43436;BME280;36399;51.444;-2.018;2023-08-01T07:57:09;99525.88;;;17.48;100.00
43436;BME280;36399;51.444;-2.018;2023-08-01T07:59:35;99528.00;;;17.64;100.00
43436;BME280;36399;51.444;-2.018;2023-08-01T08:02:01;99512.91;;;17.68;100.00
43436;BME280;36399;51.444;-2.018;2023-08-01T08:04:27;99506.47;;;17.77;100.00
43436;BME280;36399;51.444;-2.018;2023-08-01T08:06:53;99503.16;;;17.96;100.00
43436;BME280;36399;51.444;-2.018;2023-08-01T08:09:20;99489.47;;;18.35;100.00
43436;BME280;36399;51.444;-2.018;2023-08-01T08:11:48;99472.34;;;17.91;100.00
43436;BME280;36399;51.444;-2.018;2023-08-01T08:14:15;99485.13;;;17.80;100.00
43436;BME280;36399;51.444;-2.018;2023-08-01T08:16:42;99488.91;;;17.99;100.00
43436;BME280;36399;51.444;-2.018;2023-08-01T08:19:08;99486.88;;;18.07;100.00
43436;BME280;36399;51.444;-2.018;2023-08-01T08:21:34;99471.97;;;18.29;100.00
43436;BME280;36399;51.444;-2.018;2023-08-01T08:24:00;99473.63;;;18.32;100.00
43436;BME280;36399;51.444;-2.018;2023-08-01T08:26:26;99486.56;;;18.68;100.00
43436;BME280;36399;51.444;-2.018;2023-08-01T08:28:52;99463.00;;;18.57;100.00
43436;BME280;36399;51.444;-2.018;2023-08-01T08:31:18;99461.09;;;18.62;100.00
43436;BME280;36399;51.444;-2.018;2023-08-01T08:33:44;99465.00;;;18.77;100.00
43436;BME280;36399;51.444;-2.018;2023-08-01T08:36:10;99463.44;;;18.45;100.00
43436;BME280;36399;51.444;-2.018;2023-08-01T08:38:36;99463.50;;;18.68;100.00
43436;BME280;36399;51.444;-2.018;2023-08-01T08:41:09;99463.69;;;18.88;100.00
43436;BME280;36399;51.444;-2.018;2023-08-01T08:43:35;99458.38;;;18.64;100.00
43436;BME280;36399;51.444;-2.018;2023-08-01T08:46:03;99454.19;;;17.79;100.00
43436;BME280;36399;51.444;-2.018;2023-08-01T08:48:29;99483.22;;;17.54;100.00
43436;BME280;36399;51.444;-2.018;2023-08-01T08:51:00;99494.09;;;17.76;100.00
43436;BME280;36399;51.444;-2.018;2023-08-01T08:53:26;99477.97;;;17.82;100.00
43436;BME280;36399;51.444;-2.018;2023-08-01T08:55:53;99472.03;;;17.74;100.00
43436;BME280;36399;51.444;-2.018;2023-08-01T08:58:19;99456.00;;;18.03;100.00
43436;BME280;36399;51.444;-2.018;2023-08-01T09:00:45;99462.25;;;18.02;100.00
43436;BME280;36399;51.444;-2.018;2023-08-01T09:03:12;99450.09;;;17.95;100.00
43436;BME280;36399;51.444;-2.018;2023-08-01T09:05:51;99476.13;;;17.84;100.00
43436;BME280;36399;51.444;-2.018;2023-08-01T09:08:20;99465.78;;;17.47;100.00
43436;BME280;36399;51.444;-2.018;2023-08-01T09:10:47;99467.78;;;17.68;100.00
43436;BME280;36399;51.444;-2.018;2023-08-01T09:13:14;99459.97;;;17.62;100.00
43436;BME280;36399;51.444;-2.018;2023-08-01T09:15:41;99455.50;;;17.92;100.00
43436;BME280;36399;51.444;-2.018;2023-08-01T09:18:10;99449.66;;;18.34;100.00
43436;BME280;36399;51.444;-2.018;2023-08-01T09:20:54;99442.06;;;18.74;100.00
43436;BME280;36399;51.444;-2.018;2023-08-01T09:23:24;99432.13;;;18.79;100.00
43436;BME280;36399;51.444;-2.018;2023-08-01T09:25:51;99443.47;;;18.58;100.00
43436;BME280;36399;51.444;-2.018;2023-08-01T09:28:21;99440.66;;;18.87;100.00
43436;BME280;36399;51.444;-2.018;2023-08-01T09:30:52;99441.00;;;18.78;100.00
43436;BME280;36399;51.444;-2.018;2023-08-01T09:33:21;99433.78;;;19.05;100.00
43436;BME280;36399;51.444;-2.018;2023-08-01T09:35:51;99433.38;;;18.92;100.00
43436;BME280;36399;51.444;-2.018;2023-08-01T09:38:17;99430.75;;;19.14;100.00
43436;BME280;36399;51.444;-2.018;2023-08-01T09:40:44;99427.47;;;19.08;100.00
43436;BME280;36399;51.444;-2.018;2023-08-01T09:43:12;99436.25;;;19.57;100.00
43436;BME280;36399;51.444;-2.018;2023-08-01T09:45:49;99413.94;;;19.59;100.00
43436;BME280;36399;51.444;-2.018;2023-08-01T09:48:23;99414.66;;;19.41;100.00
43436;BME280;36399;51.444;-2.018;2023-08-01T09:50:50;99411.13;;;19.40;100.00
43436;BME280;36399;51.444;-2.018;2023-08-01T09:53:16;99411.34;;;19.58;100.00
43436;BME280;36399;51.444;-2.018;2023-08-01T09:55:44;99412.50;;;19.94;100.00
43436;BME280;36399;51.444;-2.018;2023-08-01T09:58:13;99411.03;;;19.87;100.00
43436;BME280;36399;51.444;-2.018;2023-08-01T10:00:39;99415.19;;;19.94;100.00
43436;BME280;36399;51.444;-2.018;2023-08-01T10:03:06;99411.53;;;20.37;100.00
43436;BME280;36399;51.444;-2.018;2023-08-01T10:05:34;99402.09;;;20.51;100.00
43436;BME280;36399;51.444;-2.018;2023-08-01T10:08:02;99394.75;;;20.95;100.00
43436;BME280;36399;51.444;-2.018;2023-08-01T10:10:29;99403.59;;;21.34;100.00
43436;BME280;36399;51.444;-2.018;2023-08-01T10:12:58;99399.31;;;21.30;100.00
43436;BME280;36399;51.444;-2.018;2023-08-01T10:15:27;99397.50;;;21.12;100.00
43436;BME280;36399;51.444;-2.018;2023-08-01T10:17:54;99406.75;;;21.24;100.00
43436;BME280;36399;51.444;-2.018;2023-08-01T10:20:20;99395.19;;;20.86;100.00
43436;BME280;36399;51.444;-2.018;2023-08-01T10:22:49;99392.66;;;21.20;100.00
43436;BME280;36399;51.444;-2.018;2023-08-01T10:25:16;99400.19;;;21.86;100.00
43436;BME280;36399;51.444;-2.018;2023-08-01T10:27:42;99396.78;;;22.68;100.00
43436;BME280;36399;51.444;-2.018;2023-08-01T10:30:08;99393.19;;;22.35;100.00
43436;BME280;36399;51.444;-2.018;2023-08-01T10:32:37;99385.44;;;22.81;100.00
43436;BME280;36399;51.444;-2.018;2023-08-01T10:35:04;99399.03;;;22.26;100.00
43436;BME280;36399;51.444;-2.018;2023-08-01T10:37:45;99391.94;;;22.75;100.00
43436;BME280;36399;51.444;-2.018;2023-08-01T10:40:14;99397.03;;;21.95;100.00
43436;BME280;36399;51.444;-2.018;2023-08-01T10:42:44;99395.97;;;21.63;100.00
43436;BME280;36399;51.444;-2.018;2023-08-01T10:45:28;99385.94;;;22.37;100.00
43436;BME280;36399;51.444;-2.018;2023-08-01T10:48:06;99387.91;;;23.33;100.00
43436;BME280;36399;51.444;-2.018;2023-08-01T10:50:33;99393.03;;;22.88;100.00
43436;BME280;36399;51.444;-2.018;2023-08-01T10:53:09;99390.50;;;23.50;100.00
43436;BME280;36399;51.444;-2.018;2023-08-01T10:55:40;99389.63;;;23.34;100.00
43436;BME280;36399;51.444;-2.018;2023-08-01T10:58:06;99395.31;;;22.96;100.00
43436;BME280;36399;51.444;-2.018;2023-08-01T11:00:32;99394.69;;;22.58;100.00
43436;BME280;36399;51.444;-2.018;2023-08-01T11:02:58;99380.47;;;22.06;100.00
43436;BME280;36399;51.444;-2.018;2023-08-01T11:05:23;99381.41;;;21.87;100.00
43436;BME280;36399;51.444;-2.018;2023-08-01T11:08:02;99377.19;;;23.01;100.00
43436;BME280;36399;51.444;-2.018;2023-08-01T11:10:30;99372.03;;;23.61;100.00
43436;BME280;36399;51.444;-2.018;2023-08-01T11:12:57;99377.25;;;23.94;100.00
43436;BME280;36399;51.444;-2.018;2023-08-01T11:15:23;99377.41;;;23.61;100.00
43436;BME280;36399;51.444;-2.018;2023-08-01T11:17:53;99377.22;;;24.24;100.00
43436;BME280;36399;51.444;-2.018;2023-08-01T11:20:22;99373.94;;;23.59;100.00
43436;BME280;36399;51.444;-2.018;2023-08-01T11:22:53;99380.63;;;23.82;100.00
43436;BME280;36399;51.444;-2.018;2023-08-01T11:25:34;99375.13;;;23.38;100.00
43436;BME280;36399;51.444;-2.018;2023-08-01T11:28:03;99378.44;;;23.58;100.00
43436;BME280;36399;51.444;-2.018;2023-08-01T11:30:31;99389.28;;;23.24;100.00
43436;BME280;36399;51.444;-2.018;2023-08-01T11:32:58;99379.44;;;23.24;100.00
43436;BME280;36399;51.444;-2.018;2023-08-01T11:35:24;99380.81;;;23.32;100.00
43436;BME280;36399;51.444;-2.018;2023-08-01T11:37:50;99382.91;;;23.26;100.00
43436;BME280;36399;51.444;-2.018;2023-08-01T11:40:17;99379.19;;;23.45;100.00
43436;BME280;36399;51.444;-2.018;2023-08-01T11:42:47;99377.22;;;22.84;100.00
43436;BME280;36399;51.444;-2.018;2023-08-01T11:45:14;99382.00;;;22.61;100.00
43436;BME280;36399;51.444;-2.018;2023-08-01T11:47:47;99374.09;;;22.93;100.00
43436;BME280;36399;51.444;-2.018;2023-08-01T11:50:14;99379.16;;;22.64;100.00
43436;BME280;36399;51.444;-2.018;2023-08-01T11:52:40;99378.41;;;22.45;100.00
43436;BME280;36399;51.444;-2.018;2023-08-01T11:55:07;99390.53;;;22.18;100.00
43436;BME280;36399;51.444;-2.018;2023-08-01T11:57:33;99390.69;;;22.49;100.00
43436;BME280;36399;51.444;-2.018;2023-08-01T11:59:58;99373.53;;;22.53;100.00
43436;BME280;36399;51.444;-2.018;2023-08-01T12:02:28;99371.81;;;22.35;100.00
43436;BME280;36399;51.444;-2.018;2023-08-01T12:04:57;99377.03;;;23.36;100.00
43436;BME280;36399;51.444;-2.018;2023-08-01T12:07:26;99370.28;;;24.06;100.00
43436;BME280;36399;51.444;-2.018;2023-08-01T12:09:59;99367.50;;;22.65;100.00
43436;BME280;36399;51.444;-2.018;2023-08-01T12:12:26;99371.94;;;23.15;100.00
43436;BME280;36399;51.444;-2.018;2023-08-01T12:14:53;99373.91;;;22.79;100.00
43436;BME280;36399;51.444;-2.018;2023-08-01T12:17:20;99356.13;;;23.26;100.00
43436;BME280;36399;51.444;-2.018;2023-08-01T12:19:46;99363.22;;;23.12;100.00
43436;BME280;36399;51.444;-2.018;2023-08-01T12:22:12;99356.66;;;23.17;100.00
43436;BME280;36399;51.444;-2.018;2023-08-01T12:24:38;99371.66;;;23.04;100.00
43436;BME280;36399;51.444;-2.018;2023-08-01T12:27:08;99359.56;;;22.64;100.00
43436;BME280;36399;51.444;-2.018;2023-08-01T12:29:34;99362.13;;;22.83;100.00
43436;BME280;36399;51.444;-2.018;2023-08-01T12:32:02;99363.03;;;23.15;100.00
43436;BME280;36399;51.444;-2.018;2023-08-01T12:34:28;99371.84;;;23.01;100.00
43436;BME280;36399;51.444;-2.018;2023-08-01T12:36:54;99361.13;;;23.33;100.00
43436;BME280;36399;51.444;-2.018;2023-08-01T12:39:20;99363.03;;;23.30;100.00